Time;durP1;ratioP1;P1;durP2;ratioP2;P2;SDS_P1;SDS_P2;PMS_P1;PMS_P2;Temp;Humidity;BMP_temperature;BMP_pressure;BME280_temperature;BME280_humidity;BME280_pressure;Samples;Min_cycle;Max_cycle;Signal;HPM_P1;HPM_P2
2023/08/26 00:00:15;;;;;;;5.47;4.97;;;;;;;24.61;89.37;95476.75;6275233;22;20199;-82
2023/08/26 00:02:41;;;;;;;6.35;5.60;;;;;;;24.62;88.58;95467.78;6274142;22;20180;-83
2023/08/26 00:05:08;;;;;;;6.20;5.60;;;;;;;24.61;88.89;95461.72;6274872;22;20756;-82
2023/08/26 00:07:37;;;;;;;6.57;5.97;;;;;;;24.47;91.65;95479.13;6274881;22;20541;-83
2023/08/26 00:10:07;;;;;;;6.78;5.50;;;;;;;24.41;89.99;95451.25;6275793;22;20222;-82
2023/08/26 00:12:33;;;;;;;6.18;5.63;;;;;;;24.38;89.79;95441.25;6275603;22;20226;-82
2023/08/26 00:14:59;;;;;;;6.88;5.45;;;;;;;24.20;91.67;95455.72;6274908;22;20176;-83
2023/08/26 00:17:26;;;;;;;7.70;5.75;;;;;;;24.30;90.97;95465.47;6274104;22;20835;-83
2023/08/26 00:19:54;;;;;;;6.28;5.18;;;;;;;24.32;90.48;95443.09;6274730;22;20193;-83
2023/08/26 00:22:20;;;;;;;5.63;5.22;;;;;;;24.33;90.37;95447.31;6275136;22;20175;-83
2023/08/26 00:24:47;;;;;;;6.05;5.38;;;;;;;24.38;90.86;95455.19;6275001;22;20586;-83
2023/08/26 00:27:14;;;;;;;6.90;5.00;;;;;;;24.48;89.80;95457.00;6274952;22;20644;-82
2023/08/26 00:29:41;;;;;;;6.00;5.30;;;;;;;24.50;89.80;95440.94;6274877;22;20204;-82
2023/08/26 00:32:08;;;;;;;6.38;5.68;;;;;;;24.24;92.05;95461.28;6275254;22;20201;-82
2023/08/26 00:34:34;;;;;;;5.95;5.30;;;;;;;24.27;92.16;95481.78;6274946;22;20536;-82
2023/08/26 00:37:01;;;;;;;6.20;5.50;;;;;;;24.29;90.53;95438.34;6274885;22;20176;-82
2023/08/26 00:39:27;;;;;;;6.32;5.43;;;;;;;24.24;90.35;95443.66;6275052;22;20192;-82
2023/08/26 00:41:54;;;;;;;6.43;5.78;;;;;;;24.24;90.26;95432.34;6274963;22;20562;-84
2023/08/26 00:44:22;;;;;;;5.97;5.50;;;;;;;24.27;89.39;95411.50;6273876;22;20192;-83
2023/08/26 00:46:49;;;;;;;6.10;5.57;;;;;;;24.20;91.19;95444.41;6274954;22;20386;-83
2023/08/26 00:49:16;;;;;;;5.72;5.18;;;;;;;24.31;90.25;95452.03;6273929;22;20204;-82
2023/08/26 00:51:43;;;;;;;5.72;5.22;;;;;;;24.24;91.46;95456.81;6273579;22;20176;-83
2023/08/26 00:54:10;;;;;;;5.80;5.30;;;;;;;24.23;91.82;95480.72;6274009;22;20191;-82
2023/08/26 00:56:36;;;;;;;5.70;5.20;;;;;;;24.30;91.03;95471.50;6274042;22;20180;-83
2023/08/26 00:59:03;;;;;;;7.15;5.82;;;;;;;24.24;91.40;95469.97;6273702;22;20200;-83
2023/08/26 01:01:33;;;;;;;7.72;5.68;;;;;;;24.10;91.25;95479.38;6273309;22;20176;-82
2023/08/26 01:03:59;;;;;;;5.57;5.07;;;;;;;24.13;90.45;95470.97;6273952;22;20192;-82
2023/08/26 01:06:26;;;;;;;6.90;5.35;;;;;;;24.15;90.24;95460.97;6273338;22;20176;-82
2023/08/26 01:08:53;;;;;;;6.63;5.70;;;;;;;24.07;92.57;95477.28;6273847;22;20200;-83
2023/08/26 01:11:33;;;;;;;5.22;4.72;;;;;;;24.18;91.87;95481.50;6274489;22;20176;-83
2023/08/26 01:14:09;;;;;;;5.45;5.05;;;;;;;24.24;89.45;95440.22;6273887;22;20152;-83
2023/08/26 01:16:39;;;;;;;6.15;5.35;;;;;;;24.24;89.35;95425.22;6273679;22;20541;-82
2023/08/26 01:19:11;;;;;;;5.70;5.20;;;;;;;24.19;90.02;95461.25;6273960;22;20290;-84
2023/08/26 01:21:40;;;;;;;5.72;5.20;;;;;;;24.22;90.10;95469.41;6273726;22;20497;-83
2023/08/26 01:24:09;;;;;;;5.43;5.00;;;;;;;24.16;90.28;95478.34;6273251;22;20199;-82
2023/08/26 01:26:35;;;;;;;5.93;5.30;;;;;;;24.14;89.88;95477.81;6274287;22;20647;-83
2023/08/26 01:29:04;;;;;;;6.28;5.55;;;;;;;24.17;89.95;95482.56;6275132;22;20199;-83
2023/08/26 01:31:32;;;;;;;7.28;5.68;;;;;;;24.21;90.02;95480.19;6274338;22;20182;-83
2023/08/26 01:34:03;;;;;;;5.57;5.03;;;;;;;24.25;89.97;95484.66;6274364;22;20255;-83
2023/08/26 01:36:35;;;;;;;6.28;5.68;;;;;;;24.28;90.44;95507.03;6273868;22;20182;-83
2023/08/26 01:39:03;;;;;;;6.70;5.55;;;;;;;24.31;91.20;95530.19;6273392;22;20559;-84
2023/08/26 01:41:32;;;;;;;6.30;5.60;;;;;;;24.31;92.26;95536.25;6274047;22;20172;-83
2023/08/26 01:43:59;;;;;;;8.05;5.32;;;;;;;24.32;92.20;95537.84;6272958;22;20234;-83
2023/08/26 01:46:36;;;;;;;6.05;5.45;;;;;;;24.21;93.66;95590.69;6273296;22;20172;-83
2023/08/26 01:49:03;;;;;;;9.18;5.78;;;;;;;24.13;94.76;95576.22;6273881;22;20188;-83
2023/08/26 01:51:32;;;;;;;8.20;5.95;;;;;;;24.07;97.01;95517.53;6273940;22;20825;-82
2023/08/26 01:54:03;;;;;;;6.88;5.65;;;;;;;24.09;98.97;95604.88;6273886;22;20179;-83
2023/08/26 01:56:32;;;;;;;6.70;5.95;;;;;;;24.08;97.49;95587.50;6273464;22;20251;-83
2023/08/26 01:58:58;;;;;;;7.45;6.15;;;;;;;23.99;98.82;95604.88;6273327;22;20196;-83
2023/08/26 02:01:25;;;;;;;6.38;5.78;;;;;;;24.05;100.00;95632.75;6273388;22;20176;-83
2023/08/26 02:03:51;;;;;;;6.90;6.30;;;;;;;24.13;100.00;95622.78;6272983;22;20199;-82
2023/08/26 02:06:21;;;;;;;8.45;5.80;;;;;;;24.08;98.16;95537.53;6272215;22;20180;-83
2023/08/26 02:08:48;;;;;;;9.20;6.68;;;;;;;23.98;100.00;95531.47;6273689;22;20666;-82
2023/08/26 02:11:14;;;;;;;6.68;6.07;;;;;;;24.02;100.00;95501.78;6272783;22;20187;-82
2023/08/26 02:13:42;;;;;;;7.90;6.28;;;;;;;23.90;100.00;95474.91;6272729;22;20176;-82
2023/08/26 02:16:09;;;;;;;7.10;5.95;;;;;;;23.83;99.22;95495.44;6273786;22;20168;-83
2023/08/26 02:18:35;;;;;;;8.40;5.85;;;;;;;23.80;100.00;95534.63;6273665;22;20196;-82
2023/08/26 02:21:03;;;;;;;6.40;5.80;;;;;;;23.87;98.72;95521.97;6273598;22;20183;-82
2023/08/26 02:23:31;;;;;;;7.93;5.65;;;;;;;23.95;99.69;95524.09;6273603;22;20658;-83
2023/08/26 02:25:58;;;;;;;6.75;6.05;;;;;;;24.01;99.82;95530.97;6272789;22;20245;-82
2023/08/26 02:28:27;;;;;;;6.78;5.78;;;;;;;24.01;97.54;95488.88;6272132;22;20183;-82
2023/08/26 02:30:55;;;;;;;6.43;5.80;;;;;;;23.97;98.64;95538.59;6273329;22;20199;-82
2023/08/26 02:33:22;;;;;;;6.32;5.82;;;;;;;23.99;98.20;95547.00;6273336;22;20179;-83
2023/08/26 02:35:48;;;;;;;6.00;5.40;;;;;;;24.03;95.99;95534.91;6272870;22;20172;-82
2023/08/26 02:38:15;;;;;;;5.75;5.13;;;;;;;24.05;95.40;95535.41;6272376;22;20176;-82
2023/08/26 02:40:41;;;;;;;7.15;5.63;;;;;;;24.02;96.01;95545.69;6273305;22;20175;-83
2023/08/26 02:43:08;;;;;;;8.32;5.20;;;;;;;23.84;94.02;95518.06;6271705;22;20176;-83
2023/08/26 02:45:35;;;;;;;6.38;4.80;;;;;;;23.57;94.82;95541.91;6273300;22;20251;-83
2023/08/26 02:48:03;;;;;;;5.15;4.60;;;;;;;23.41;92.63;95509.53;6273885;22;20199;-83
2023/08/26 02:50:30;;;;;;;4.50;4.10;;;;;;;23.28;91.64;95511.84;6273074;22;20566;-83
2023/08/26 02:52:56;;;;;;;4.30;3.90;;;;;;;23.07;93.60;95524.91;6273547;22;20183;-82
2023/08/26 02:55:22;;;;;;;3.65;3.35;;;;;;;22.83;91.02;95497.47;6274444;22;20191;-82
2023/08/26 02:57:49;;;;;;;5.60;3.85;;;;;;;22.65;93.20;95532.00;6275576;22;20183;-82
2023/08/26 03:00:15;;;;;;;3.40;3.10;;;;;;;22.41;92.26;95515.81;6275021;22;20247;-82
2023/08/26 03:02:42;;;;;;;3.65;3.10;;;;;;;22.37;94.11;95552.25;6274505;22;20180;-82
2023/08/26 03:05:10;;;;;;;4.22;3.35;;;;;;;22.35;96.06;95571.91;6275355;22;20196;-83
2023/08/26 03:07:38;;;;;;;3.13;2.80;;;;;;;22.43;94.66;95581.19;6275482;22;20183;-82
2023/08/26 03:10:08;;;;;;;3.90;2.70;;;;;;;22.39;93.44;95579.06;6274817;22;20566;-82
2023/08/26 03:12:35;;;;;;;5.47;3.00;;;;;;;22.39;94.64;95589.53;6274699;22;20161;-82
2023/08/26 03:15:01;;;;;;;3.25;3.05;;;;;;;22.46;94.70;95586.72;6274142;22;20177;-82
2023/08/26 03:17:28;;;;;;;3.53;3.22;;;;;;;22.50;93.60;95573.91;6274535;22;20275;-82
2023/08/26 03:19:57;;;;;;;4.53;3.42;;;;;;;22.47;92.89;95572.56;6274090;22;20196;-82
2023/08/26 03:22:25;;;;;;;5.03;3.17;;;;;;;22.41;93.90;95578.81;6274649;22;20184;-82
2023/08/26 03:24:51;;;;;;;3.80;3.25;;;;;;;22.47;94.66;95590.94;6274168;22;20192;-82
2023/08/26 03:27:18;;;;;;;4.05;3.45;;;;;;;22.23;94.39;95568.69;6274555;22;20238;-82
2023/08/26 03:29:47;;;;;;;4.00;3.50;;;;;;;22.05;96.15;95602.09;6275203;22;20196;-82
2023/08/26 03:32:13;;;;;;;4.15;3.30;;;;;;;22.13;96.31;95621.06;6273370;22;20579;-82
2023/08/26 03:34:40;;;;;;;3.60;3.30;;;;;;;22.20;95.86;95622.44;6273984;22;20172;-82
2023/08/26 03:37:06;;;;;;;3.55;3.20;;;;;;;22.18;95.43;95613.22;6274438;22;20180;-82
2023/08/26 03:39:34;;;;;;;3.85;3.50;;;;;;;22.04;97.29;95618.88;6274827;22;20199;-82
2023/08/26 03:42:00;;;;;;;3.85;3.20;;;;;;;22.00;96.83;95609.13;6274295;22;20179;-82
2023/08/26 03:44:27;;;;;;;3.50;2.78;;;;;;;21.82;96.91;95612.03;6273845;22;20196;-82
2023/08/26 03:46:53;;;;;;;3.88;3.10;;;;;;;21.90;97.81;95635.22;6273298;22;20711;-82
2023/08/26 03:49:19;;;;;;;3.78;2.85;;;;;;;22.07;97.12;95645.66;6273885;22;20192;-82
2023/08/26 03:51:48;;;;;;;3.30;3.00;;;;;;;22.15;96.23;95645.97;6274090;22;20172;-82
2023/08/26 03:54:17;;;;;;;5.32;3.05;;;;;;;22.17;96.76;95645.72;6273962;22;20691;-82
2023/08/26 03:56:46;;;;;;;3.58;2.67;;;;;;;22.22;94.51;95633.47;6273548;22;20179;-82
2023/08/26 03:59:12;;;;;;;3.65;3.10;;;;;;;22.23;94.24;95631.63;6274386;22;20216;-82
2023/08/26 04:01:39;;;;;;;3.15;2.85;;;;;;;22.14;93.65;95620.78;6273590;22;20206;-82
2023/08/26 04:04:05;;;;;;;2.97;2.78;;;;;;;22.01;92.89;95598.38;6273759;22;20179;-82
2023/08/26 04:06:33;;;;;;;4.20;2.88;;;;;;;22.05;93.41;95606.56;6273998;22;20543;-82
2023/08/26 04:09:02;;;;;;;3.13;2.83;;;;;;;22.06;92.64;95595.03;6274535;22;20228;-82
2023/08/26 04:11:31;;;;;;;3.28;2.70;;;;;;;22.03;91.48;95577.97;6273863;22;20496;-82
2023/08/26 04:13:59;;;;;;;3.75;3.10;;;;;;;22.08;91.76;95589.53;6274064;22;20183;-82
2023/08/26 04:16:25;;;;;;;4.25;2.80;;;;;;;22.14;92.83;95591.94;6273967;22;20168;-82
2023/08/26 04:18:52;;;;;;;5.03;2.75;;;;;;;22.21;91.98;95581.25;6274011;22;20559;-81
2023/08/26 04:21:19;;;;;;;4.40;3.00;;;;;;;22.20;92.02;95577.84;6272607;22;20640;-82
2023/08/26 04:23:46;;;;;;;3.35;3.10;;;;;;;22.25;92.10;95583.13;6273735;22;20194;-82
2023/08/26 04:26:14;;;;;;;3.30;2.88;;;;;;;22.28;92.49;95589.72;6273280;22;20286;-82
2023/08/26 04:28:41;;;;;;;3.65;3.13;;;;;;;22.29;93.92;95609.66;6273760;22;20196;-82
2023/08/26 04:31:08;;;;;;;3.20;2.92;;;;;;;22.32;93.54;95594.19;6273718;22;20176;-83
2023/08/26 04:33:37;;;;;;;5.05;3.25;;;;;;;22.37;90.57;95569.84;6273327;22;20199;-82
2023/08/26 04:36:04;;;;;;;2.97;2.70;;;;;;;22.32;90.34;95562.72;6273095;22;20175;-82
2023/08/26 04:38:32;;;;;;;3.03;2.72;;;;;;;22.39;91.39;95573.00;6274373;22;20748;-82
2023/08/26 04:40:58;;;;;;;3.10;2.80;;;;;;;22.42;90.90;95572.50;6274656;22;20523;-83
2023/08/26 04:43:26;;;;;;;3.63;2.85;;;;;;;22.45;89.43;95539.75;6274297;22;20180;-82
2023/08/26 04:45:58;;;;;;;3.17;2.80;;;;;;;22.44;91.59;95569.63;6274334;22;20203;-82
2023/08/26 04:48:28;;;;;;;4.18;3.25;;;;;;;22.54;91.22;95580.19;6273515;22;20161;-82
2023/08/26 04:50:57;;;;;;;5.40;3.25;;;;;;;22.52;91.58;95595.41;6273898;22;20187;-82
2023/08/26 04:53:24;;;;;;;3.50;3.00;;;;;;;22.59;92.21;95593.38;6272885;22;20674;-82
2023/08/26 04:55:53;;;;;;;3.45;3.05;;;;;;;22.62;92.58;95595.50;6273357;22;20172;-82
2023/08/26 04:58:20;;;;;;;4.03;2.90;;;;;;;22.60;92.51;95593.13;6273963;22;20195;-82
2023/08/26 05:00:47;;;;;;;3.05;2.72;;;;;;;22.66;90.72;95576.38;6272318;22;20183;-82
2023/08/26 05:03:13;;;;;;;3.05;2.85;;;;;;;22.72;88.76;95548.31;6273402;22;20176;-82
2023/08/26 05:05:46;;;;;;;3.15;2.88;;;;;;;22.73;89.57;95570.88;6273329;22;20528;-82
2023/08/26 05:08:13;;;;;;;4.95;3.22;;;;;;;22.71;89.02;95563.25;6272297;22;20156;-82
2023/08/26 05:10:39;;;;;;;4.35;3.00;;;;;;;22.67;89.23;95545.66;6272796;22;20175;-82
2023/08/26 05:13:06;;;;;;;3.15;2.92;;;;;;;22.64;89.70;95559.28;6273306;22;20179;-82
2023/08/26 05:15:33;;;;;;;4.18;3.00;;;;;;;22.53;90.16;95545.28;6272745;22;20175;-82
2023/08/26 05:17:59;;;;;;;4.97;3.22;;;;;;;22.53;89.49;95547.91;6273966;22;20172;-83
2023/08/26 05:20:27;;;;;;;3.42;2.65;;;;;;;22.56;88.87;95530.88;6273872;22;20199;-83
2023/08/26 05:22:56;;;;;;;4.30;2.90;;;;;;;22.61;89.21;95550.09;6275006;22;20199;-82
2023/08/26 05:25:22;;;;;;;3.13;2.88;;;;;;;22.61;89.30;95550.09;6272581;22;20192;-82
2023/08/26 05:27:49;;;;;;;3.35;2.80;;;;;;;22.66;88.89;95558.00;6273512;22;20172;-82
2023/08/26 05:30:15;;;;;;;2.70;2.50;;;;;;;22.63;87.28;95523.59;6272794;22;20199;-83
2023/08/26 05:32:42;;;;;;;3.20;2.90;;;;;;;22.60;88.10;95550.34;6272422;22;20647;-82
2023/08/26 05:35:09;;;;;;;3.80;3.25;;;;;;;22.59;88.78;95556.63;6272637;22;20176;-82
2023/08/26 05:37:35;;;;;;;3.00;2.80;;;;;;;22.64;88.08;95557.47;6272524;22;20177;-82
2023/08/26 05:40:03;;;;;;;3.60;2.58;;;;;;;22.69;87.89;95547.00;6272692;22;20299;-82
2023/08/26 05:42:34;;;;;;;6.07;2.75;;;;;;;22.74;88.80;95573.25;6272307;22;20176;-82
2023/08/26 05:45:00;;;;;;;2.83;2.53;;;;;;;22.78;89.50;95586.72;6272104;22;20238;-82
2023/08/26 05:47:27;;;;;;;3.50;2.42;;;;;;;22.77;89.10;95584.31;6272559;22;20635;-82
2023/08/26 05:49:53;;;;;;;2.78;2.58;;;;;;;22.74;90.21;95598.72;6273041;22;20195;-82
2023/08/26 05:52:20;;;;;;;3.75;2.80;;;;;;;22.71;89.23;95583.47;6273582;22;20176;-82
2023/08/26 05:54:49;;;;;;;5.10;2.97;;;;;;;22.68;90.31;95602.38;6273234;22;20195;-82
2023/08/26 05:57:19;;;;;;;2.95;2.67;;;;;;;22.71;89.55;95586.88;6271840;22;20486;-82
2023/08/26 05:59:45;;;;;;;4.40;2.65;;;;;;;22.75;89.23;95589.81;6272293;22;20249;-82
2023/08/26 06:02:19;;;;;;;3.72;2.75;;;;;;;22.71;90.31;95607.09;6271554;22;20634;-82
2023/08/26 06:04:48;;;;;;;3.70;2.60;;;;;;;22.72;89.97;95591.09;6272531;22;20165;-83
2023/08/26 06:07:15;;;;;;;2.83;2.63;;;;;;;22.67;90.80;95608.66;6272767;22;20180;-83
2023/08/26 06:09:42;;;;;;;3.47;2.90;;;;;;;22.69;91.65;95620.50;6272185;22;20513;-83
2023/08/26 06:12:08;;;;;;;4.82;2.90;;;;;;;22.67;92.61;95635.72;6270770;22;20183;-83
2023/08/26 06:14:36;;;;;;;3.42;2.65;;;;;;;22.74;91.14;95617.88;6271798;22;20177;-82
2023/08/26 06:17:02;;;;;;;3.13;2.63;;;;;;;22.74;90.28;95596.09;6267575;22;20488;-82
2023/08/26 06:19:29;;;;;;;4.28;2.60;;;;;;;22.84;89.55;95598.84;6270712;22;20228;-83
2023/08/26 06:21:56;;;;;;;3.85;2.58;;;;;;;23.00;89.61;95607.59;6270896;22;20183;-83
2023/08/26 06:24:22;;;;;;;2.83;2.58;;;;;;;23.15;89.40;95614.75;6270835;22;20179;-82
2023/08/26 06:26:49;;;;;;;3.70;2.35;;;;;;;23.13;86.96;95567.72;6270233;22;20867;-83
2023/08/26 06:29:17;;;;;;;5.63;2.83;;;;;;;23.15;85.50;95547.25;6270391;22;20433;-84
2023/08/26 06:31:45;;;;;;;3.92;2.58;;;;;;;23.17;86.07;95557.50;6274090;22;20175;-83
2023/08/26 06:34:11;;;;;;;3.50;2.50;;;;;;;23.20;86.04;95563.03;6273543;22;20179;-83
2023/08/26 06:36:38;;;;;;;4.07;2.65;;;;;;;23.22;86.10;95558.34;6273472;22;20168;-83
2023/08/26 06:39:04;;;;;;;2.92;2.30;;;;;;;23.22;86.73;95568.03;6274104;22;20271;-83
2023/08/26 06:41:32;;;;;;;3.17;2.47;;;;;;;23.30;87.14;95565.69;6273357;22;20823;-83
2023/08/26 06:43:59;;;;;;;2.83;2.42;;;;;;;23.51;87.38;95568.41;6273616;22;20195;-83
2023/08/26 06:46:25;;;;;;;4.95;2.60;;;;;;;23.63;85.32;95533.00;6272910;22;20206;-82
2023/08/26 06:48:53;;;;;;;2.42;2.22;;;;;;;23.73;85.41;95540.13;6272901;22;20203;-83
2023/08/26 06:51:20;;;;;;;4.63;2.67;;;;;;;23.85;84.47;95522.28;6272597;22;20180;-83
2023/08/26 06:53:47;;;;;;;2.85;2.47;;;;;;;23.97;83.79;95522.00;6272982;22;20662;-83
2023/08/26 06:56:13;;;;;;;4.47;2.58;;;;;;;23.98;81.85;95490.19;6273626;22;20168;-83
2023/08/26 06:58:39;;;;;;;2.55;2.13;;;;;;;23.92;82.29;95491.22;6274063;22;20578;-83
2023/08/26 07:01:06;;;;;;;3.10;2.50;;;;;;;23.88;81.83;95492.00;6273867;22;20238;-83
2023/08/26 07:03:32;;;;;;;3.20;2.78;;;;;;;23.97;82.01;95490.44;6273971;22;20172;-82
2023/08/26 07:06:01;;;;;;;2.28;2.17;;;;;;;23.99;82.31;95488.34;6276320;22;20846;-83
2023/08/26 07:08:28;;;;;;;2.20;2.10;;;;;;;23.96;83.41;95504.66;6275395;22;20172;-82
2023/08/26 07:10:54;;;;;;;2.17;2.05;;;;;;;23.87;81.37;95457.03;6275042;22;20176;-83
2023/08/26 07:13:20;;;;;;;2.30;2.10;;;;;;;23.79;81.95;95447.06;6274142;22;20176;-82
2023/08/26 07:15:47;;;;;;;2.80;2.50;;;;;;;23.73;83.97;95479.63;6275689;22;20545;-82
2023/08/26 07:18:14;;;;;;;2.40;2.20;;;;;;;23.70;84.65;95504.59;6275099;22;20179;-82
2023/08/26 07:20:41;;;;;;;2.45;2.25;;;;;;;23.84;85.83;95533.06;6275568;22;20179;-82
2023/08/26 07:23:09;;;;;;;4.88;4.45;;;;;;;23.71;85.67;95521.97;6274628;22;20183;-82
2023/08/26 07:25:35;;;;;;;2.55;2.40;;;;;;;23.86;84.44;95499.41;6274662;22;20195;-81
2023/08/26 07:28:02;;;;;;;3.28;2.97;;;;;;;24.07;82.27;95469.38;6274001;22;20233;-82
2023/08/26 07:30:29;;;;;;;6.18;4.88;;;;;;;24.22;80.04;95424.66;6274857;22;20204;-82
2023/08/26 07:32:56;;;;;;;5.85;5.18;;;;;;;24.27;81.87;95463.34;6274767;22;20700;-82
2023/08/26 07:35:22;;;;;;;3.30;3.10;;;;;;;24.54;79.97;95439.34;6274708;22;20582;-82
2023/08/26 07:37:49;;;;;;;3.88;3.08;;;;;;;24.83;78.47;95397.38;6275163;22;20184;-82
2023/08/26 07:40:17;;;;;;;2.88;2.63;;;;;;;24.87;76.65;95364.16;6275159;22;20196;-84
2023/08/26 07:42:44;;;;;;;3.35;2.58;;;;;;;24.83;77.66;95385.00;6272505;22;20179;-82
2023/08/26 07:45:12;;;;;;;3.80;2.50;;;;;;;25.02;77.80;95387.81;6271941;22;20187;-82
2023/08/26 07:47:40;;;;;;;3.00;2.80;;;;;;;25.21;76.11;95351.88;6272261;22;20203;-82
2023/08/26 07:50:08;;;;;;;3.50;2.90;;;;;;;25.35;74.92;95328.34;6272537;22;20203;-82
2023/08/26 07:52:36;;;;;;;2.90;2.70;;;;;;;25.52;74.28;95312.13;6274319;22;20487;-82
2023/08/26 07:55:05;;;;;;;3.08;2.88;;;;;;;25.51;74.60;95331.63;6273800;22;20713;-82
2023/08/26 07:57:35;;;;;;;3.30;3.00;;;;;;;25.50;75.54;95348.50;6273462;22;20711;-82
2023/08/26 08:00:05;;;;;;;4.13;3.50;;;;;;;25.35;75.48;95359.97;6273545;22;20211;-82
2023/08/26 08:02:32;;;;;;;3.83;3.40;;;;;;;25.18;75.92;95364.84;6272623;22;20495;-82
2023/08/26 08:04:58;;;;;;;3.70;3.40;;;;;;;25.06;77.40;95394.13;6272133;22;20183;-82
2023/08/26 08:07:25;;;;;;;5.43;4.50;;;;;;;24.81;77.35;95381.88;6273945;22;20202;-81
2023/08/26 08:09:53;;;;;;;6.30;5.80;;;;;;;24.68;78.18;95401.66;6274618;22;20196;-82
2023/08/26 08:12:22;;;;;;;4.82;4.43;;;;;;;24.65;78.70;95420.63;6274071;22;20643;-81
2023/08/26 08:14:56;;;;;;;3.92;3.47;;;;;;;24.73;78.77;95408.75;6273444;22;20180;-82
2023/08/26 08:17:22;;;;;;;4.28;3.88;;;;;;;24.76;79.30;95429.28;6272058;22;20153;-81
2023/08/26 08:19:48;;;;;;;4.28;3.88;;;;;;;24.77;80.40;95438.75;6272115;22;20203;-82
2023/08/26 08:22:16;;;;;;;4.05;3.75;;;;;;;24.68;81.68;95443.00;6272250;22;20661;-82
2023/08/26 08:24:43;;;;;;;5.25;4.05;;;;;;;24.76;80.54;95426.66;6272147;22;20195;-81
2023/08/26 08:27:09;;;;;;;5.95;4.20;;;;;;;24.95;78.13;95396.03;6272496;22;20577;-81
2023/08/26 08:29:36;;;;;;;4.68;4.20;;;;;;;25.46;76.08;95345.63;6272589;22;20231;-81
2023/08/26 08:32:04;;;;;;;5.28;4.18;;;;;;;25.78;74.47;95319.56;6273840;22;20172;-81
2023/08/26 08:34:33;;;;;;;5.43;4.20;;;;;;;25.85;73.12;95276.22;6273418;22;20180;-81
2023/08/26 08:37:00;;;;;;;4.22;3.83;;;;;;;25.63;73.47;95284.59;6273115;22;20222;-81
2023/08/26 08:39:26;;;;;;;5.15;4.75;;;;;;;25.51;74.61;95311.31;6273218;22;20204;-81
2023/08/26 08:41:55;;;;;;;5.40;4.38;;;;;;;25.41;74.32;95309.53;6274684;22;20199;-81
2023/08/26 08:44:26;;;;;;;4.93;4.30;;;;;;;25.53;74.18;95313.69;6276437;22;20184;-81
2023/08/26 08:46:55;;;;;;;4.80;4.40;;;;;;;25.59;74.26;95304.69;6276479;22;20220;-81
2023/08/26 08:49:23;;;;;;;5.07;4.15;;;;;;;25.65;73.79;95299.09;6277424;22;20536;-82
2023/08/26 08:51:50;;;;;;;4.70;4.20;;;;;;;25.81;71.61;95258.31;6276546;22;20183;-81
2023/08/26 08:54:16;;;;;;;5.63;4.90;;;;;;;25.78;72.00;95268.66;6275613;22;20414;-81
2023/08/26 08:56:46;;;;;;;5.20;4.70;;;;;;;25.80;72.19;95267.28;6277346;22;20173;-83
2023/08/26 08:59:14;;;;;;;4.53;4.18;;;;;;;26.27;70.82;95259.66;6276417;22;20476;-82
2023/08/26 09:01:43;;;;;;;6.22;5.63;;;;;;;26.33;69.43;95203.13;6275853;22;20175;-82
2023/08/26 09:04:10;;;;;;;5.53;4.70;;;;;;;26.24;71.27;95271.56;6274938;22;20172;-81
2023/08/26 09:06:38;;;;;;;6.53;5.05;;;;;;;26.70;70.10;95237.44;6274297;22;20192;-81
2023/08/26 09:09:10;;;;;;;13.02;6.25;;;;;;;26.81;68.69;95209.00;6276472;22;20202;-81
2023/08/26 09:11:39;;;;;;;16.83;5.53;;;;;;;27.21;66.89;95141.50;6275033;22;20168;-82
2023/08/26 09:14:06;;;;;;;15.38;5.55;;;;;;;27.66;65.26;95105.50;6276150;22;20180;-82
2023/08/26 09:16:37;;;;;;;11.00;5.53;;;;;;;28.00;63.33;95046.81;6277143;22;20173;-82
2023/08/26 09:19:06;;;;;;;32.13;15.75;;;;;;;28.02;62.59;95023.50;6277136;22;20196;-83
2023/08/26 09:21:32;;;;;;;11.15;5.18;;;;;;;27.72;64.23;95064.63;6274284;22;20184;-82
2023/08/26 09:24:04;;;;;;;5.72;4.38;;;;;;;27.39;65.64;95105.47;6275688;22;20176;-81
2023/08/26 09:26:31;;;;;;;8.13;5.97;;;;;;;27.05;67.20;95127.78;6273200;22;20488;-81
2023/08/26 09:28:58;;;;;;;5.00;4.55;;;;;;;26.83;67.41;95112.53;6274164;22;20258;-81
2023/08/26 09:31:25;;;;;;;10.07;6.03;;;;;;;26.65;69.01;95178.63;6273522;22;20192;-81
2023/08/26 09:34:00;;;;;;;5.07;4.60;;;;;;;26.68;69.69;95209.75;6272749;22;20176;-81
2023/08/26 09:36:39;;;;;;;6.55;4.03;;;;;;;26.74;68.30;95180.34;6273516;22;20620;-81
2023/08/26 09:39:13;;;;;;;7.00;4.38;;;;;;;26.55;69.63;95203.34;6273997;22;20195;-81
2023/08/26 09:41:39;;;;;;;4.88;4.00;;;;;;;26.57;69.51;95189.81;6273325;22;20523;-81
2023/08/26 09:44:06;;;;;;;6.50;3.95;;;;;;;26.98;67.48;95153.78;6271730;22;20184;-81
2023/08/26 09:46:35;;;;;;;8.40;7.32;;;;;;;27.33;64.92;95067.00;6273351;22;20590;-81
2023/08/26 09:49:02;;;;;;;5.57;4.28;;;;;;;27.82;63.09;95016.00;6273652;22;20248;-81
2023/08/26 09:51:30;;;;;;;4.18;3.78;;;;;;;28.13;60.50;94928.72;6273499;22;20198;-82
2023/08/26 09:53:57;;;;;;;8.25;5.88;;;;;;;28.06;59.65;94896.63;6274084;22;20207;-82
2023/08/26 09:56:26;;;;;;;5.25;3.70;;;;;;;28.14;57.15;94798.69;6276245;22;20183;-81
2023/08/26 09:58:56;;;;;;;4.65;3.65;;;;;;;28.17;56.63;94778.78;6275300;22;20219;-81
2023/08/26 10:01:25;;;;;;;8.32;3.85;;;;;;;28.06;56.74;94791.53;6274391;22;20172;-81
2023/08/26 10:03:59;;;;;;;6.07;3.88;;;;;;;28.01;58.07;94822.63;6275522;22;20180;-81
2023/08/26 10:06:29;;;;;;;6.65;3.75;;;;;;;28.06;56.33;94765.06;6274272;22;20180;-81
2023/08/26 10:09:05;;;;;;;6.60;3.63;;;;;;;28.22;58.37;94814.97;6274022;22;20274;-81
2023/08/26 10:11:39;;;;;;;5.70;3.78;;;;;;;28.33;57.87;94809.06;6274755;22;20179;-80
2023/08/26 10:14:12;;;;;;;29.15;26.40;;;;;;;28.25;58.75;94817.78;6275114;22;20156;-80
2023/08/26 10:16:42;;;;;;;4.97;4.47;;;;;;;28.27;57.11;94773.25;6274452;22;20643;-81
2023/08/26 10:19:11;;;;;;;4.03;3.65;;;;;;;27.88;58.25;94797.84;6274421;22;20392;-81
2023/08/26 10:21:39;;;;;;;6.18;3.80;;;;;;;27.52;57.49;94753.72;6274577;22;20176;-80
2023/08/26 10:24:06;;;;;;;4.15;3.58;;;;;;;27.24;58.40;94799.91;6274476;22;20237;-80
2023/08/26 10:26:37;;;;;;;4.25;3.83;;;;;;;27.10;59.25;94829.03;6274377;22;20594;-81
2023/08/26 10:29:04;;;;;;;4.30;3.90;;;;;;;26.86;59.91;94848.84;6275433;22;20196;-81
2023/08/26 10:31:34;;;;;;;4.25;3.85;;;;;;;26.65;60.72;94866.97;6274238;22;20176;-81
2023/08/26 10:34:13;;;;;;;7.15;4.18;;;;;;;26.68;61.87;94908.63;6274676;22;20175;-81
2023/08/26 10:36:41;;;;;;;4.90;4.10;;;;;;;26.67;61.20;94883.31;6274290;22;20210;-81
2023/08/26 10:39:14;;;;;;;5.65;3.90;;;;;;;26.65;60.58;94862.47;6275008;22;20249;-81
2023/08/26 10:42:16;;;;;;;4.10;3.60;;;;;;;26.76;60.87;94863.03;6279824;22;20616;-81
2023/08/26 10:44:45;;;;;;;7.50;3.92;;;;;;;26.81;60.27;94836.50;6279189;22;20188;-83
2023/08/26 10:47:12;;;;;;;4.18;3.30;;;;;;;26.74;60.88;94842.22;6280653;22;20230;-83
2023/08/26 10:49:41;;;;;;;3.78;3.47;;;;;;;26.78;61.40;94872.22;6279485;22;20204;-83
2023/08/26 10:52:08;;;;;;;6.65;4.00;;;;;;;26.84;61.79;94889.53;6279198;22;20172;-82
2023/08/26 10:54:35;;;;;;;29.67;27.05;;;;;;;26.81;61.92;94873.50;6279540;22;20195;-82
2023/08/26 10:57:07;;;;;;;22.60;20.52;;;;;;;26.94;61.99;94899.13;6280803;22;20183;-82
2023/08/26 10:59:39;;;;;;;4.47;4.10;;;;;;;26.63;62.37;94883.09;6279804;22;20566;-81
2023/08/26 11:02:07;;;;;;;6.10;4.03;;;;;;;26.62;62.18;94884.19;6279414;22;20517;-82
2023/08/26 11:04:34;;;;;;;4.75;3.78;;;;;;;26.59;62.39;94881.34;6277039;22;20176;-82
2023/08/26 11:07:00;;;;;;;4.53;3.78;;;;;;;26.67;62.97;94891.22;6279172;22;20196;-82
2023/08/26 11:09:27;;;;;;;5.82;3.67;;;;;;;26.91;62.61;94891.00;6277315;22;20247;-81
2023/08/26 11:11:53;;;;;;;5.18;4.00;;;;;;;27.21;62.27;94879.03;6273703;22;20176;-82
2023/08/26 11:14:30;;;;;;;4.13;3.72;;;;;;;27.20;61.35;94837.81;6274464;22;20179;-82
2023/08/26 11:17:02;;;;;;;4.60;4.18;;;;;;;27.13;60.75;94832.97;6272139;22;20156;-82
2023/08/26 11:19:31;;;;;;;4.43;3.55;;;;;;;27.00;60.03;94807.34;6273508;22;20200;-82
2023/08/26 11:21:57;;;;;;;4.68;3.95;;;;;;;26.76;59.97;94778.50;6273561;22;20178;-82
2023/08/26 11:24:29;;;;;;;4.22;3.83;;;;;;;26.60;60.76;94814.25;6274249;22;20659;-82
2023/08/26 11:26:56;;;;;;;4.82;4.00;;;;;;;26.45;61.73;94849.66;6274048;22;20176;-82
2023/08/26 11:29:22;;;;;;;5.97;4.00;;;;;;;26.52;63.55;94894.16;6274896;22;20196;-81
2023/08/26 11:31:50;;;;;;;5.65;4.20;;;;;;;26.41;63.43;94906.75;6272377;22;20710;-82
2023/08/26 11:34:22;;;;;;;4.40;4.00;;;;;;;26.48;62.94;94875.47;6273941;22;20183;-82